sensor_id;sensor_type;location;lat;lon;timestamp;P1;durP1;ratioP1;P2;durP2;ratioP2
67757;SDS011;54562;47.620;18.786;2023-08-07T00:02:23;1.20;;;1.10;;
67757;SDS011;54562;47.620;18.786;2023-08-07T00:05:30;2.10;;;1.20;;
67757;SDS011;54562;47.620;18.786;2023-08-07T00:08:36;1.20;;;1.10;;
67757;SDS011;54562;47.620;18.786;2023-08-07T00:11:43;1.10;;;1.00;;
67757;SDS011;54562;47.620;18.786;2023-08-07T00:14:50;3.40;;;1.10;;
67757;SDS011;54562;47.620;18.786;2023-08-07T00:17:56;2.50;;;1.10;;
67757;SDS011;54562;47.620;18.786;2023-08-07T00:21:03;1.60;;;1.00;;
67757;SDS011;54562;47.620;18.786;2023-08-07T00:24:10;0.90;;;0.90;;
67757;SDS011;54562;47.620;18.786;2023-08-07T00:27:16;1.50;;;1.10;;
67757;SDS011;54562;47.620;18.786;2023-08-07T00:30:22;1.30;;;1.00;;
67757;SDS011;54562;47.620;18.786;2023-08-07T00:33:29;3.40;;;1.10;;
67757;SDS011;54562;47.620;18.786;2023-08-07T00:36:35;1.60;;;1.00;;
67757;SDS011;54562;47.620;18.786;2023-08-07T00:39:41;1.10;;;1.00;;
67757;SDS011;54562;47.620;18.786;2023-08-07T00:42:48;2.40;;;1.20;;
67757;SDS011;54562;47.620;18.786;2023-08-07T00:45:53;1.70;;;1.10;;
67757;SDS011;54562;47.620;18.786;2023-08-07T00:49:00;1.60;;;1.00;;
67757;SDS011;54562;47.620;18.786;2023-08-07T00:52:07;1.50;;;1.20;;
67757;SDS011;54562;47.620;18.786;2023-08-07T00:55:13;2.00;;;1.10;;
67757;SDS011;54562;47.620;18.786;2023-08-07T00:58:19;1.20;;;1.00;;
67757;SDS011;54562;47.620;18.786;2023-08-07T01:01:25;3.40;;;1.00;;
67757;SDS011;54562;47.620;18.786;2023-08-07T01:04:32;1.40;;;1.00;;
67757;SDS011;54562;47.620;18.786;2023-08-07T01:07:38;1.10;;;1.00;;
67757;SDS011;54562;47.620;18.786;2023-08-07T01:10:48;4.70;;;1.20;;
67757;SDS011;54562;47.620;18.786;2023-08-07T01:14:02;1.30;;;1.10;;
67757;SDS011;54562;47.620;18.786;2023-08-07T01:17:14;2.00;;;1.00;;
67757;SDS011;54562;47.620;18.786;2023-08-07T01:20:21;1.20;;;1.10;;
67757;SDS011;54562;47.620;18.786;2023-08-07T01:23:28;1.10;;;0.90;;
67757;SDS011;54562;47.620;18.786;2023-08-07T01:26:34;1.60;;;1.20;;
67757;SDS011;54562;47.620;18.786;2023-08-07T01:29:42;2.60;;;1.00;;
67757;SDS011;54562;47.620;18.786;2023-08-07T01:32:56;1.80;;;1.00;;
67757;SDS011;54562;47.620;18.786;2023-08-07T01:36:08;1.20;;;1.00;;
67757;SDS011;54562;47.620;18.786;2023-08-07T01:39:14;1.10;;;1.00;;
67757;SDS011;54562;47.620;18.786;2023-08-07T01:42:21;1.00;;;1.00;;
67757;SDS011;54562;47.620;18.786;2023-08-07T01:45:28;1.10;;;1.00;;
67757;SDS011;54562;47.620;18.786;2023-08-07T01:48:34;0.90;;;0.90;;
67757;SDS011;54562;47.620;18.786;2023-08-07T01:51:41;1.40;;;1.10;;
67757;SDS011;54562;47.620;18.786;2023-08-07T01:54:47;2.10;;;1.20;;
67757;SDS011;54562;47.620;18.786;2023-08-07T01:57:53;4.10;;;1.10;;
67757;SDS011;54562;47.620;18.786;2023-08-07T02:01:00;1.60;;;1.00;;
67757;SDS011;54562;47.620;18.786;2023-08-07T02:04:06;1.70;;;1.10;;
67757;SDS011;54562;47.620;18.786;2023-08-07T02:07:13;1.20;;;1.00;;
67757;SDS011;54562;47.620;18.786;2023-08-07T02:10:19;1.80;;;1.20;;
67757;SDS011;54562;47.620;18.786;2023-08-07T02:13:25;1.10;;;1.00;;
67757;SDS011;54562;47.620;18.786;2023-08-07T02:16:31;1.70;;;1.00;;
67757;SDS011;54562;47.620;18.786;2023-08-07T02:19:38;1.50;;;1.10;;
67757;SDS011;54562;47.620;18.786;2023-08-07T02:22:45;1.90;;;1.20;;
67757;SDS011;54562;47.620;18.786;2023-08-07T02:25:51;2.30;;;1.20;;
67757;SDS011;54562;47.620;18.786;2023-08-07T02:28:58;2.20;;;1.10;;
67757;SDS011;54562;47.620;18.786;2023-08-07T02:32:06;1.60;;;1.10;;
67757;SDS011;54562;47.620;18.786;2023-08-07T02:35:12;1.90;;;1.20;;
67757;SDS011;54562;47.620;18.786;2023-08-07T02:38:19;3.80;;;1.20;;
67757;SDS011;54562;47.620;18.786;2023-08-07T02:41:25;1.70;;;1.00;;
67757;SDS011;54562;47.620;18.786;2023-08-07T02:44:32;2.40;;;1.10;;
67757;SDS011;54562;47.620;18.786;2023-08-07T02:47:38;2.70;;;1.10;;
67757;SDS011;54562;47.620;18.786;2023-08-07T02:50:44;4.10;;;1.30;;
67757;SDS011;54562;47.620;18.786;2023-08-07T02:53:53;1.90;;;1.10;;
67757;SDS011;54562;47.620;18.786;2023-08-07T02:56:59;2.10;;;1.10;;
67757;SDS011;54562;47.620;18.786;2023-08-07T03:00:08;2.50;;;1.40;;
67757;SDS011;54562;47.620;18.786;2023-08-07T03:03:15;3.40;;;1.30;;
67757;SDS011;54562;47.620;18.786;2023-08-07T03:06:22;3.50;;;1.20;;
67757;SDS011;54562;47.620;18.786;2023-08-07T03:09:28;2.00;;;1.10;;
67757;SDS011;54562;47.620;18.786;2023-08-07T03:12:35;3.00;;;1.20;;
67757;SDS011;54562;47.620;18.786;2023-08-07T03:15:41;2.50;;;1.10;;
67757;SDS011;54562;47.620;18.786;2023-08-07T03:18:47;3.40;;;1.30;;
67757;SDS011;54562;47.620;18.786;2023-08-07T03:21:55;2.60;;;1.20;;
67757;SDS011;54562;47.620;18.786;2023-08-07T03:25:02;3.70;;;1.10;;
67757;SDS011;54562;47.620;18.786;2023-08-07T03:28:09;2.80;;;1.10;;
67757;SDS011;54562;47.620;18.786;2023-08-07T03:31:15;3.00;;;1.10;;
67757;SDS011;54562;47.620;18.786;2023-08-07T03:34:22;2.20;;;1.20;;
67757;SDS011;54562;47.620;18.786;2023-08-07T03:37:28;2.30;;;1.20;;
67757;SDS011;54562;47.620;18.786;2023-08-07T03:40:35;3.40;;;1.20;;
67757;SDS011;54562;47.620;18.786;2023-08-07T03:43:42;2.30;;;1.20;;
67757;SDS011;54562;47.620;18.786;2023-08-07T03:46:48;2.60;;;1.30;;
67757;SDS011;54562;47.620;18.786;2023-08-07T03:49:55;2.00;;;1.20;;
67757;SDS011;54562;47.620;18.786;2023-08-07T03:53:02;5.00;;;1.40;;
67757;SDS011;54562;47.620;18.786;2023-08-07T03:56:10;2.90;;;1.30;;
67757;SDS011;54562;47.620;18.786;2023-08-07T03:59:16;2.30;;;1.20;;
67757;SDS011;54562;47.620;18.786;2023-08-07T04:02:24;1.50;;;1.10;;
67757;SDS011;54562;47.620;18.786;2023-08-07T04:05:34;4.20;;;1.20;;
67757;SDS011;54562;47.620;18.786;2023-08-07T04:08:40;3.20;;;1.40;;
67757;SDS011;54562;47.620;18.786;2023-08-07T04:11:46;2.70;;;1.20;;
67757;SDS011;54562;47.620;18.786;2023-08-07T04:14:53;2.10;;;1.30;;
67757;SDS011;54562;47.620;18.786;2023-08-07T04:17:59;3.50;;;1.30;;
67757;SDS011;54562;47.620;18.786;2023-08-07T04:21:06;2.30;;;1.20;;
67757;SDS011;54562;47.620;18.786;2023-08-07T04:24:13;3.10;;;1.30;;
67757;SDS011;54562;47.620;18.786;2023-08-07T04:27:19;3.40;;;1.30;;
67757;SDS011;54562;47.620;18.786;2023-08-07T04:30:25;3.50;;;1.30;;
67757;SDS011;54562;47.620;18.786;2023-08-07T04:33:32;4.10;;;1.30;;
67757;SDS011;54562;47.620;18.786;2023-08-07T04:36:39;2.90;;;1.40;;
67757;SDS011;54562;47.620;18.786;2023-08-07T04:39:45;4.50;;;1.20;;
67757;SDS011;54562;47.620;18.786;2023-08-07T04:42:51;2.90;;;1.40;;
67757;SDS011;54562;47.620;18.786;2023-08-07T04:46:00;3.70;;;1.40;;
67757;SDS011;54562;47.620;18.786;2023-08-07T04:49:07;2.60;;;1.20;;
67757;SDS011;54562;47.620;18.786;2023-08-07T04:52:13;2.90;;;1.40;;
67757;SDS011;54562;47.620;18.786;2023-08-07T04:55:28;3.60;;;1.30;;
67757;SDS011;54562;47.620;18.786;2023-08-07T04:58:35;2.30;;;1.30;;
67757;SDS011;54562;47.620;18.786;2023-08-07T05:01:41;4.90;;;1.30;;
67757;SDS011;54562;47.620;18.786;2023-08-07T05:04:48;5.00;;;1.40;;
67757;SDS011;54562;47.620;18.786;2023-08-07T05:07:57;3.00;;;1.40;;
67757;SDS011;54562;47.620;18.786;2023-08-07T05:11:04;3.40;;;1.40;;
67757;SDS011;54562;47.620;18.786;2023-08-07T05:14:10;2.80;;;1.30;;
67757;SDS011;54562;47.620;18.786;2023-08-07T05:17:17;4.80;;;1.50;;
67757;SDS011;54562;47.620;18.786;2023-08-07T05:20:23;3.30;;;1.40;;
67757;SDS011;54562;47.620;18.786;2023-08-07T05:23:30;3.20;;;1.40;;
67757;SDS011;54562;47.620;18.786;2023-08-07T05:26:36;3.20;;;1.40;;
67757;SDS011;54562;47.620;18.786;2023-08-07T05:29:44;2.30;;;1.30;;
67757;SDS011;54562;47.620;18.786;2023-08-07T05:32:50;4.80;;;1.50;;
67757;SDS011;54562;47.620;18.786;2023-08-07T05:35:56;4.00;;;1.50;;
67757;SDS011;54562;47.620;18.786;2023-08-07T05:39:03;2.80;;;1.30;;
67757;SDS011;54562;47.620;18.786;2023-08-07T05:42:09;3.10;;;1.30;;
67757;SDS011;54562;47.620;18.786;2023-08-07T05:45:17;3.80;;;1.30;;
67757;SDS011;54562;47.620;18.786;2023-08-07T05:48:23;3.50;;;1.40;;
67757;SDS011;54562;47.620;18.786;2023-08-07T05:51:29;2.50;;;1.20;;
67757;SDS011;54562;47.620;18.786;2023-08-07T05:54:35;2.30;;;1.20;;
67757;SDS011;54562;47.620;18.786;2023-08-07T05:57:42;3.80;;;1.20;;
67757;SDS011;54562;47.620;18.786;2023-08-07T06:00:48;2.80;;;1.30;;
67757;SDS011;54562;47.620;18.786;2023-08-07T06:03:55;3.70;;;1.40;;
67757;SDS011;54562;47.620;18.786;2023-08-07T06:07:02;2.60;;;1.30;;
67757;SDS011;54562;47.620;18.786;2023-08-07T06:10:10;3.10;;;1.30;;
67757;SDS011;54562;47.620;18.786;2023-08-07T06:13:16;2.80;;;1.30;;
67757;SDS011;54562;47.620;18.786;2023-08-07T06:16:37;2.70;;;1.20;;
67757;SDS011;54562;47.620;18.786;2023-08-07T06:19:44;2.60;;;1.30;;
67757;SDS011;54562;47.620;18.786;2023-08-07T06:22:50;3.30;;;1.30;;
67757;SDS011;54562;47.620;18.786;2023-08-07T06:25:56;3.00;;;1.40;;
67757;SDS011;54562;47.620;18.786;2023-08-07T06:29:07;1.50;;;1.00;;
67757;SDS011;54562;47.620;18.786;2023-08-07T06:32:13;2.50;;;1.20;;
67757;SDS011;54562;47.620;18.786;2023-08-07T06:35:22;3.30;;;1.20;;
67757;SDS011;54562;47.620;18.786;2023-08-07T06:38:29;2.60;;;1.30;;
67757;SDS011;54562;47.620;18.786;2023-08-07T06:41:36;2.90;;;1.20;;
67757;SDS011;54562;47.620;18.786;2023-08-07T06:44:42;3.00;;;1.00;;
67757;SDS011;54562;47.620;18.786;2023-08-07T06:47:48;2.50;;;1.20;;
67757;SDS011;54562;47.620;18.786;2023-08-07T06:50:55;2.80;;;1.30;;
67757;SDS011;54562;47.620;18.786;2023-08-07T06:54:02;1.60;;;1.10;;
67757;SDS011;54562;47.620;18.786;2023-08-07T06:57:08;1.90;;;1.10;;
67757;SDS011;54562;47.620;18.786;2023-08-07T07:00:16;2.60;;;1.20;;
67757;SDS011;54562;47.620;18.786;2023-08-07T07:03:25;1.60;;;1.00;;
67757;SDS011;54562;47.620;18.786;2023-08-07T07:06:31;2.90;;;1.10;;
67757;SDS011;54562;47.620;18.786;2023-08-07T07:09:38;1.20;;;1.00;;
67757;SDS011;54562;47.620;18.786;2023-08-07T07:12:44;2.00;;;1.10;;
67757;SDS011;54562;47.620;18.786;2023-08-07T07:15:54;1.50;;;1.00;;
67757;SDS011;54562;47.620;18.786;2023-08-07T07:19:02;5.00;;;1.10;;
67757;SDS011;54562;47.620;18.786;2023-08-07T07:22:09;1.50;;;1.00;;
67757;SDS011;54562;47.620;18.786;2023-08-07T07:25:16;2.20;;;1.10;;
67757;SDS011;54562;47.620;18.786;2023-08-07T07:28:23;2.80;;;1.20;;
67757;SDS011;54562;47.620;18.786;2023-08-07T07:31:29;2.60;;;1.00;;
67757;SDS011;54562;47.620;18.786;2023-08-07T07:34:36;2.10;;;1.10;;
67757;SDS011;54562;47.620;18.786;2023-08-07T07:37:42;3.30;;;1.10;;
67757;SDS011;54562;47.620;18.786;2023-08-07T07:40:48;1.60;;;1.00;;
67757;SDS011;54562;47.620;18.786;2023-08-07T07:43:58;1.50;;;1.00;;
67757;SDS011;54562;47.620;18.786;2023-08-07T07:47:05;1.50;;;1.00;;
67757;SDS011;54562;47.620;18.786;2023-08-07T07:50:16;2.10;;;0.90;;
67757;SDS011;54562;47.620;18.786;2023-08-07T07:53:22;1.20;;;1.00;;
67757;SDS011;54562;47.620;18.786;2023-08-07T07:56:28;1.60;;;0.90;;
67757;SDS011;54562;47.620;18.786;2023-08-07T07:59:35;1.80;;;0.90;;
67757;SDS011;54562;47.620;18.786;2023-08-07T08:02:41;1.00;;;0.80;;
67757;SDS011;54562;47.620;18.786;2023-08-07T08:05:50;1.60;;;0.80;;
67757;SDS011;54562;47.620;18.786;2023-08-07T08:08:56;2.00;;;0.90;;
67757;SDS011;54562;47.620;18.786;2023-08-07T08:12:08;1.10;;;0.80;;
67757;SDS011;54562;47.620;18.786;2023-08-07T08:15:14;0.80;;;0.70;;
67757;SDS011;54562;47.620;18.786;2023-08-07T08:18:21;1.30;;;0.90;;
67757;SDS011;54562;47.620;18.786;2023-08-07T08:21:27;0.60;;;0.60;;
67757;SDS011;54562;47.620;18.786;2023-08-07T08:24:34;1.40;;;0.80;;
67757;SDS011;54562;47.620;18.786;2023-08-07T08:27:41;2.40;;;0.80;;
67757;SDS011;54562;47.620;18.786;2023-08-07T08:30:47;1.40;;;0.60;;
67757;SDS011;54562;47.620;18.786;2023-08-07T08:33:54;1.30;;;0.70;;
67757;SDS011;54562;47.620;18.786;2023-08-07T08:37:04;1.20;;;0.80;;
67757;SDS011;54562;47.620;18.786;2023-08-07T08:40:12;0.90;;;0.70;;
67757;SDS011;54562;47.620;18.786;2023-08-07T08:43:20;1.00;;;0.80;;
67757;SDS011;54562;47.620;18.786;2023-08-07T08:46:26;1.10;;;0.90;;
67757;SDS011;54562;47.620;18.786;2023-08-07T08:49:35;1.20;;;0.80;;
67757;SDS011;54562;47.620;18.786;2023-08-07T08:52:43;2.20;;;1.00;;
67757;SDS011;54562;47.620;18.786;2023-08-07T08:55:49;0.80;;;0.80;;
67757;SDS011;54562;47.620;18.786;2023-08-07T08:58:56;0.80;;;0.80;;
67757;SDS011;54562;47.620;18.786;2023-08-07T09:02:03;1.20;;;0.70;;
67757;SDS011;54562;47.620;18.786;2023-08-07T09:05:09;0.80;;;0.70;;
67757;SDS011;54562;47.620;18.786;2023-08-07T09:08:15;1.50;;;0.90;;
67757;SDS011;54562;47.620;18.786;2023-08-07T09:11:23;2.10;;;0.80;;
67757;SDS011;54562;47.620;18.786;2023-08-07T09:14:30;0.70;;;0.50;;
67757;SDS011;54562;47.620;18.786;2023-08-07T09:20:45;1.00;;;0.60;;
67757;SDS011;54562;47.620;18.786;2023-08-07T09:23:52;0.40;;;0.40;;
67757;SDS011;54562;47.620;18.786;2023-08-07T09:26:59;1.80;;;0.50;;
67757;SDS011;54562;47.620;18.786;2023-08-07T09:30:06;1.90;;;0.60;;
67757;SDS011;54562;47.620;18.786;2023-08-07T09:33:14;0.40;;;0.40;;
67757;SDS011;54562;47.620;18.786;2023-08-07T09:36:23;1.30;;;0.50;;
67757;SDS011;54562;47.620;18.786;2023-08-07T09:39:31;0.80;;;0.60;;
67757;SDS011;54562;47.620;18.786;2023-08-07T09:42:38;0.60;;;0.50;;
67757;SDS011;54562;47.620;18.786;2023-08-07T09:45:45;0.50;;;0.50;;
67757;SDS011;54562;47.620;18.786;2023-08-07T09:48:56;0.90;;;0.70;;
67757;SDS011;54562;47.620;18.786;2023-08-07T09:52:06;0.50;;;0.50;;
67757;SDS011;54562;47.620;18.786;2023-08-07T09:55:13;2.10;;;0.70;;
67757;SDS011;54562;47.620;18.786;2023-08-07T09:58:19;0.60;;;0.50;;
67757;SDS011;54562;47.620;18.786;2023-08-07T10:01:28;2.20;;;0.80;;
67757;SDS011;54562;47.620;18.786;2023-08-07T10:04:36;0.60;;;0.60;;
67757;SDS011;54562;47.620;18.786;2023-08-07T10:07:42;1.60;;;0.60;;
67757;SDS011;54562;47.620;18.786;2023-08-07T10:10:50;1.10;;;0.60;;
67757;SDS011;54562;47.620;18.786;2023-08-07T10:13:56;1.50;;;0.40;;
67757;SDS011;54562;47.620;18.786;2023-08-07T10:17:04;1.00;;;0.60;;
67757;SDS011;54562;47.620;18.786;2023-08-07T10:20:12;0.50;;;0.50;;
67757;SDS011;54562;47.620;18.786;2023-08-07T10:23:19;1.50;;;0.70;;
67757;SDS011;54562;47.620;18.786;2023-08-07T10:26:27;0.60;;;0.60;;
67757;SDS011;54562;47.620;18.786;2023-08-07T10:29:34;2.50;;;0.90;;
67757;SDS011;54562;47.620;18.786;2023-08-07T10:32:41;0.70;;;0.50;;
67757;SDS011;54562;47.620;18.786;2023-08-07T10:35:51;0.50;;;0.50;;
67757;SDS011;54562;47.620;18.786;2023-08-07T10:39:09;1.90;;;0.70;;
67757;SDS011;54562;47.620;18.786;2023-08-07T10:42:56;1.80;;;0.70;;
67757;SDS011;54562;47.620;18.786;2023-08-07T10:46:04;0.50;;;0.50;;
67757;SDS011;54562;47.620;18.786;2023-08-07T10:49:11;0.50;;;0.50;;
67757;SDS011;54562;47.620;18.786;2023-08-07T10:52:39;1.30;;;0.70;;
67757;SDS011;54562;47.620;18.786;2023-08-07T10:55:46;0.80;;;0.80;;
67757;SDS011;54562;47.620;18.786;2023-08-07T10:58:53;2.60;;;0.90;;
67757;SDS011;54562;47.620;18.786;2023-08-07T11:02:00;0.90;;;0.80;;
67757;SDS011;54562;47.620;18.786;2023-08-07T11:05:07;0.80;;;0.80;;
67757;SDS011;54562;47.620;18.786;2023-08-07T11:08:13;2.80;;;0.70;;
67757;SDS011;54562;47.620;18.786;2023-08-07T11:11:20;0.80;;;0.70;;
67757;SDS011;54562;47.620;18.786;2023-08-07T11:14:26;0.90;;;0.80;;
67757;SDS011;54562;47.620;18.786;2023-08-07T11:17:33;1.00;;;0.80;;
67757;SDS011;54562;47.620;18.786;2023-08-07T11:20:40;1.90;;;0.90;;
67757;SDS011;54562;47.620;18.786;2023-08-07T11:23:47;1.10;;;0.90;;
67757;SDS011;54562;47.620;18.786;2023-08-07T11:26:53;2.10;;;1.00;;
67757;SDS011;54562;47.620;18.786;2023-08-07T11:30:07;1.70;;;1.00;;
67757;SDS011;54562;47.620;18.786;2023-08-07T11:33:30;7.30;;;1.40;;
67757;SDS011;54562;47.620;18.786;2023-08-07T11:36:41;1.70;;;0.80;;
67757;SDS011;54562;47.620;18.786;2023-08-07T11:39:51;2.00;;;1.00;;
67757;SDS011;54562;47.620;18.786;2023-08-07T11:43:04;2.70;;;1.10;;
67757;SDS011;54562;47.620;18.786;2023-08-07T11:46:13;1.50;;;1.00;;
67757;SDS011;54562;47.620;18.786;2023-08-07T11:49:20;1.80;;;1.00;;
67757;SDS011;54562;47.620;18.786;2023-08-07T11:52:27;0.90;;;0.90;;
67757;SDS011;54562;47.620;18.786;2023-08-07T11:55:35;2.80;;;1.00;;
67757;SDS011;54562;47.620;18.786;2023-08-07T11:58:44;1.30;;;1.10;;
67757;SDS011;54562;47.620;18.786;2023-08-07T12:01:52;2.20;;;1.10;;
67757;SDS011;54562;47.620;18.786;2023-08-07T12:05:00;3.80;;;1.20;;
67757;SDS011;54562;47.620;18.786;2023-08-07T12:08:11;1.30;;;1.00;;
67757;SDS011;54562;47.620;18.786;2023-08-07T12:11:18;1.60;;;1.00;;
67757;SDS011;54562;47.620;18.786;2023-08-07T12:14:29;2.50;;;1.10;;
67757;SDS011;54562;47.620;18.786;2023-08-07T12:20:41;1.40;;;1.00;;
67757;SDS011;54562;47.620;18.786;2023-08-07T12:23:49;1.80;;;1.00;;
67757;SDS011;54562;47.620;18.786;2023-08-07T12:27:04;2.10;;;0.90;;
67757;SDS011;54562;47.620;18.786;2023-08-07T12:30:15;1.50;;;1.00;;
67757;SDS011;54562;47.620;18.786;2023-08-07T12:33:25;2.60;;;1.10;;
67757;SDS011;54562;47.620;18.786;2023-08-07T12:36:37;2.10;;;1.10;;
67757;SDS011;54562;47.620;18.786;2023-08-07T12:39:43;1.70;;;1.00;;
67757;SDS011;54562;47.620;18.786;2023-08-07T12:42:53;4.80;;;1.20;;
67757;SDS011;54562;47.620;18.786;2023-08-07T12:46:00;2.90;;;1.10;;
67757;SDS011;54562;47.620;18.786;2023-08-07T12:49:09;2.30;;;1.00;;
67757;SDS011;54562;47.620;18.786;2023-08-07T12:52:16;2.30;;;1.00;;
67757;SDS011;54562;47.620;18.786;2023-08-07T12:55:23;1.70;;;1.00;;
67757;SDS011;54562;47.620;18.786;2023-08-07T12:58:29;3.20;;;1.20;;
67757;SDS011;54562;47.620;18.786;2023-08-07T13:01:36;2.30;;;1.20;;
67757;SDS011;54562;47.620;18.786;2023-08-07T13:04:42;4.20;;;1.20;;
67757;SDS011;54562;47.620;18.786;2023-08-07T13:07:49;2.70;;;1.20;;
67757;SDS011;54562;47.620;18.786;2023-08-07T13:10:57;3.50;;;1.20;;
67757;SDS011;54562;47.620;18.786;2023-08-07T13:14:04;2.50;;;1.10;;
67757;SDS011;54562;47.620;18.786;2023-08-07T13:17:10;1.00;;;1.00;;
67757;SDS011;54562;47.620;18.786;2023-08-07T13:20:17;1.80;;;1.10;;
67757;SDS011;54562;47.620;18.786;2023-08-07T13:23:25;2.10;;;1.10;;
67757;SDS011;54562;47.620;18.786;2023-08-07T13:26:31;2.10;;;1.00;;
67757;SDS011;54562;47.620;18.786;2023-08-07T13:29:37;1.90;;;1.10;;
67757;SDS011;54562;47.620;18.786;2023-08-07T13:32:44;3.50;;;1.10;;
67757;SDS011;54562;47.620;18.786;2023-08-07T13:35:50;1.60;;;0.90;;
67757;SDS011;54562;47.620;18.786;2023-08-07T13:38:57;1.80;;;1.00;;
67757;SDS011;54562;47.620;18.786;2023-08-07T13:42:04;1.70;;;1.00;;
67757;SDS011;54562;47.620;18.786;2023-08-07T13:45:12;0.90;;;0.80;;
67757;SDS011;54562;47.620;18.786;2023-08-07T13:48:18;1.70;;;1.20;;
67757;SDS011;54562;47.620;18.786;2023-08-07T13:51:27;2.70;;;1.00;;
67757;SDS011;54562;47.620;18.786;2023-08-07T13:54:33;1.40;;;1.10;;
67757;SDS011;54562;47.620;18.786;2023-08-07T13:57:39;1.40;;;1.10;;
67757;SDS011;54562;47.620;18.786;2023-08-07T14:00:46;1.10;;;1.00;;
67757;SDS011;54562;47.620;18.786;2023-08-07T14:03:52;1.00;;;1.00;;
67757;SDS011;54562;47.620;18.786;2023-08-07T14:06:59;1.20;;;1.00;;
67757;SDS011;54562;47.620;18.786;2023-08-07T14:10:08;3.00;;;1.00;;
67757;SDS011;54562;47.620;18.786;2023-08-07T14:13:17;2.90;;;1.10;;
67757;SDS011;54562;47.620;18.786;2023-08-07T14:16:23;1.00;;;0.90;;
67757;SDS011;54562;47.620;18.786;2023-08-07T14:19:30;1.50;;;1.10;;
67757;SDS011;54562;47.620;18.786;2023-08-07T14:22:36;3.80;;;1.20;;
67757;SDS011;54562;47.620;18.786;2023-08-07T14:25:44;1.20;;;1.00;;
67757;SDS011;54562;47.620;18.786;2023-08-07T14:28:53;2.00;;;1.30;;
67757;SDS011;54562;47.620;18.786;2023-08-07T14:31:59;2.80;;;1.30;;
67757;SDS011;54562;47.620;18.786;2023-08-07T14:35:07;2.20;;;1.30;;
67757;SDS011;54562;47.620;18.786;2023-08-07T14:38:13;2.20;;;1.30;;
67757;SDS011;54562;47.620;18.786;2023-08-07T14:41:19;2.10;;;1.30;;
67757;SDS011;54562;47.620;18.786;2023-08-07T14:44:25;2.30;;;1.10;;
67757;SDS011;54562;47.620;18.786;2023-08-07T14:47:32;2.10;;;1.30;;
67757;SDS011;54562;47.620;18.786;2023-08-07T14:50:39;2.20;;;1.30;;
67757;SDS011;54562;47.620;18.786;2023-08-07T14:53:48;2.90;;;1.40;;
67757;SDS011;54562;47.620;18.786;2023-08-07T14:56:54;3.20;;;1.40;;
67757;SDS011;54562;47.620;18.786;2023-08-07T15:00:02;2.50;;;1.30;;
67757;SDS011;54562;47.620;18.786;2023-08-07T15:03:11;3.40;;;1.30;;
67757;SDS011;54562;47.620;18.786;2023-08-07T15:06:17;2.30;;;1.20;;
67757;SDS011;54562;47.620;18.786;2023-08-07T15:09:24;3.30;;;1.40;;
67757;SDS011;54562;47.620;18.786;2023-08-07T15:12:31;3.00;;;1.40;;
67757;SDS011;54562;47.620;18.786;2023-08-07T15:15:38;3.60;;;1.40;;
67757;SDS011;54562;47.620;18.786;2023-08-07T15:18:46;4.10;;;1.50;;
67757;SDS011;54562;47.620;18.786;2023-08-07T15:21:53;3.10;;;1.40;;
67757;SDS011;54562;47.620;18.786;2023-08-07T15:25:01;3.90;;;1.40;;
67757;SDS011;54562;47.620;18.786;2023-08-07T15:28:09;2.40;;;1.40;;
67757;SDS011;54562;47.620;18.786;2023-08-07T15:31:16;4.60;;;1.60;;
67757;SDS011;54562;47.620;18.786;2023-08-07T15:34:22;2.40;;;1.40;;
67757;SDS011;54562;47.620;18.786;2023-08-07T15:37:29;4.10;;;1.60;;
67757;SDS011;54562;47.620;18.786;2023-08-07T15:40:36;3.60;;;1.40;;
67757;SDS011;54562;47.620;18.786;2023-08-07T15:43:43;2.40;;;1.40;;
67757;SDS011;54562;47.620;18.786;2023-08-07T15:46:49;4.60;;;1.60;;
67757;SDS011;54562;47.620;18.786;2023-08-07T15:49:56;3.20;;;1.50;;
67757;SDS011;54562;47.620;18.786;2023-08-07T15:53:06;3.30;;;1.40;;
67757;SDS011;54562;47.620;18.786;2023-08-07T15:56:12;3.80;;;1.60;;
67757;SDS011;54562;47.620;18.786;2023-08-07T15:59:19;2.80;;;1.40;;
67757;SDS011;54562;47.620;18.786;2023-08-07T16:02:26;3.40;;;1.50;;
67757;SDS011;54562;47.620;18.786;2023-08-07T16:05:32;2.80;;;1.40;;
67757;SDS011;54562;47.620;18.786;2023-08-07T16:08:39;4.50;;;1.70;;
67757;SDS011;54562;47.620;18.786;2023-08-07T16:11:45;5.60;;;1.60;;
67757;SDS011;54562;47.620;18.786;2023-08-07T16:14:52;3.90;;;1.50;;
67757;SDS011;54562;47.620;18.786;2023-08-07T16:18:02;5.20;;;1.80;;
67757;SDS011;54562;47.620;18.786;2023-08-07T16:21:10;5.20;;;1.60;;
67757;SDS011;54562;47.620;18.786;2023-08-07T16:24:17;3.50;;;1.50;;
67757;SDS011;54562;47.620;18.786;2023-08-07T16:27:23;4.20;;;1.50;;
67757;SDS011;54562;47.620;18.786;2023-08-07T16:30:29;4.20;;;1.70;;
67757;SDS011;54562;47.620;18.786;2023-08-07T16:33:36;4.50;;;2.20;;
67757;SDS011;54562;47.620;18.786;2023-08-07T16:36:42;4.00;;;1.60;;
67757;SDS011;54562;47.620;18.786;2023-08-07T16:39:49;3.70;;;1.60;;
67757;SDS011;54562;47.620;18.786;2023-08-07T16:42:55;3.80;;;1.50;;
67757;SDS011;54562;47.620;18.786;2023-08-07T16:46:02;4.30;;;1.60;;
67757;SDS011;54562;47.620;18.786;2023-08-07T16:49:09;4.20;;;1.60;;
67757;SDS011;54562;47.620;18.786;2023-08-07T16:52:15;5.50;;;1.70;;
67757;SDS011;54562;47.620;18.786;2023-08-07T16:55:24;3.40;;;1.60;;
67757;SDS011;54562;47.620;18.786;2023-08-07T16:58:31;5.00;;;1.60;;
67757;SDS011;54562;47.620;18.786;2023-08-07T17:01:38;4.40;;;1.70;;
67757;SDS011;54562;47.620;18.786;2023-08-07T17:04:44;3.60;;;1.80;;
67757;SDS011;54562;47.620;18.786;2023-08-07T17:07:51;5.70;;;1.90;;
67757;SDS011;54562;47.620;18.786;2023-08-07T17:10:57;5.80;;;2.00;;
67757;SDS011;54562;47.620;18.786;2023-08-07T17:14:04;4.40;;;1.90;;
67757;SDS011;54562;47.620;18.786;2023-08-07T17:17:10;5.50;;;1.80;;
67757;SDS011;54562;47.620;18.786;2023-08-07T17:20:17;5.20;;;1.90;;
67757;SDS011;54562;47.620;18.786;2023-08-07T17:23:25;5.80;;;1.70;;
67757;SDS011;54562;47.620;18.786;2023-08-07T17:26:32;4.50;;;1.80;;
67757;SDS011;54562;47.620;18.786;2023-08-07T17:29:45;4.10;;;1.70;;
67757;SDS011;54562;47.620;18.786;2023-08-07T17:32:53;4.50;;;1.90;;
67757;SDS011;54562;47.620;18.786;2023-08-07T17:36:00;5.20;;;2.10;;
67757;SDS011;54562;47.620;18.786;2023-08-07T17:39:09;8.00;;;2.70;;
67757;SDS011;54562;47.620;18.786;2023-08-07T17:42:15;6.80;;;2.80;;
67757;SDS011;54562;47.620;18.786;2023-08-07T17:45:22;4.90;;;2.10;;
67757;SDS011;54562;47.620;18.786;2023-08-07T17:48:28;3.60;;;1.80;;
67757;SDS011;54562;47.620;18.786;2023-08-07T17:51:36;5.00;;;2.00;;
67757;SDS011;54562;47.620;18.786;2023-08-07T17:54:42;5.50;;;1.90;;
67757;SDS011;54562;47.620;18.786;2023-08-07T17:57:53;4.40;;;1.90;;
67757;SDS011;54562;47.620;18.786;2023-08-07T18:00:59;7.10;;;3.10;;
67757;SDS011;54562;47.620;18.786;2023-08-07T18:04:07;7.80;;;3.40;;
67757;SDS011;54562;47.620;18.786;2023-08-07T18:07:13;5.10;;;2.50;;
67757;SDS011;54562;47.620;18.786;2023-08-07T18:10:20;4.40;;;2.00;;
67757;SDS011;54562;47.620;18.786;2023-08-07T18:13:26;4.50;;;1.90;;
67757;SDS011;54562;47.620;18.786;2023-08-07T18:16:32;5.10;;;2.00;;
67757;SDS011;54562;47.620;18.786;2023-08-07T18:19:40;7.10;;;1.80;;
67757;SDS011;54562;47.620;18.786;2023-08-07T18:22:46;4.90;;;1.70;;
67757;SDS011;54562;47.620;18.786;2023-08-07T18:25:52;4.90;;;1.70;;
67757;SDS011;54562;47.620;18.786;2023-08-07T18:28:58;4.80;;;1.90;;
67757;SDS011;54562;47.620;18.786;2023-08-07T18:32:06;7.60;;;1.90;;
67757;SDS011;54562;47.620;18.786;2023-08-07T18:35:13;3.70;;;1.80;;
67757;SDS011;54562;47.620;18.786;2023-08-07T18:38:20;4.20;;;2.20;;